Hauptseite
METAR-TAF:

METAR-TAF

Flughäfen :

Fliegerhorst Schleswig

Schleswig-Jagel, Deutschland

Breite: 54-28N, Länge: 009-31E, Höhe: 22 m

Beobachtung

Neuester Wetterbericht von vor 44 Minuten, um 03:20 UTC
Wind 18 kt aus Ost, Böen bis zu 28 kt
Temperatur 3°C
Luftfeuchtigkeit 75%
Luftdruck 1020 hPa
Sichtweite 10 km oder mehr

METAR: ETNS 210320Z AUTO 10018G28KT 9999 // ////// 03/M01 Q1020 ///

Zeit: 05:04 (04:04 UTC)

Prognose

Neuester Wetterbericht von vor 12 Stunden und 4 Minuten, um 16:00 UTC
Gültige Prognose vom 20 um 15 UTC bis 20 um 24 UTC
Wind 15 kt aus Ost, Böen bis zu 25 kt
Sichtweite: 1620 m
Durchbrochene Bewölkung in der Höhe von 2000 ft

TAF: ETNS 201600Z 2015/2024 09015G25KT 9999 NSW BKN020 CANCEL 1620 BY ETGL

Wetterbeobachtungen und Prognosen von mehr als 4000 Flughäfen (METAR und TAF Bericht).

Die verfügbaren Stationen werden durch gelbe und rote Markierungen auf der Karte dargestellt.

Führen Sie die Maus auf sie, um den Namen der Station zu sehen.

Darauf klicken, um die Beobachtung von Wetterbeobachtungen und Prognosen zu sehen.

Um die Karte zu ändern : klicken Sie auf den grünen Tasten mit einem schwarzen Kreuz Zum Vergrößern, auf den grünen Button mit einem Gedankenstrich zu verkleinern, oder auf die grünen Pfeile für benachbarte Karten.


METAR-TAF: